sensor_id;sensor_type;location;lat;lon;timestamp;pressure;altitude;pressure_sealevel;temperature;humidity
50125;BME280;36023;48.670;6.184;2023-04-02T00:11:44;98292.00;;;17.06;47.94
50125;BME280;36023;48.670;6.184;2023-04-02T00:14:26;98302.47;;;17.06;47.78
50125;BME280;36023;48.670;6.184;2023-04-02T00:16:55;98306.03;;;17.05;47.85
50125;BME280;36023;48.670;6.184;2023-04-02T00:19:34;98304.25;;;17.05;47.77
50125;BME280;36023;48.670;6.184;2023-04-02T00:22:02;98306.94;;;17.04;47.82
50125;BME280;36023;48.670;6.184;2023-04-02T00:24:32;98306.94;;;17.04;47.66
50125;BME280;36023;48.670;6.184;2023-04-02T00:26:58;98308.66;;;17.05;47.78
50125;BME280;36023;48.670;6.184;2023-04-02T00:29:24;98308.66;;;17.05;47.74
50125;BME280;36023;48.670;6.184;2023-04-02T00:31:51;98311.31;;;17.03;47.79
50125;BME280;36023;48.670;6.184;2023-04-02T00:34:43;98308.72;;;17.03;47.71
50125;BME280;36023;48.670;6.184;2023-04-02T00:37:16;98316.56;;;17.03;47.73
50125;BME280;36023;48.670;6.184;2023-04-02T00:39:51;98318.34;;;17.03;47.87
50125;BME280;36023;48.670;6.184;2023-04-02T00:42:18;98316.56;;;17.03;47.87
50125;BME280;36023;48.670;6.184;2023-04-02T00:44:45;98327.88;;;17.04;47.73
50125;BME280;36023;48.670;6.184;2023-04-02T00:47:19;98320.09;;;17.02;47.79
50125;BME280;36023;48.670;6.184;2023-04-02T00:49:45;98320.09;;;17.02;47.65
50125;BME280;36023;48.670;6.184;2023-04-02T00:52:19;98311.31;;;17.03;47.83
50125;BME280;36023;48.670;6.184;2023-04-02T00:54:56;98317.59;;;17.01;47.80
50125;BME280;36023;48.670;6.184;2023-04-02T00:57:24;98319.28;;;17.02;47.75
50125;BME280;36023;48.670;6.184;2023-04-02T01:02:27;98318.44;;;17.01;47.74
50125;BME280;36023;48.670;6.184;2023-04-02T01:04:58;98318.53;;;16.99;47.72
50125;BME280;36023;48.670;6.184;2023-04-02T01:07:49;98319.38;;;17.00;47.69
50125;BME280;36023;48.670;6.184;2023-04-02T01:13:28;98315.06;;;16.99;47.53
50125;BME280;36023;48.670;6.184;2023-04-02T01:18:55;98324.69;;;16.98;47.64
50125;BME280;36023;48.670;6.184;2023-04-02T01:24:13;98334.31;;;16.98;47.63
50125;BME280;36023;48.670;6.184;2023-04-02T01:27:01;98324.78;;;16.97;47.70
50125;BME280;36023;48.670;6.184;2023-04-02T01:29:37;98331.78;;;16.96;47.66
50125;BME280;36023;48.670;6.184;2023-04-02T01:32:12;98333.47;;;16.97;47.61
50125;BME280;36023;48.670;6.184;2023-04-02T01:34:40;98330.91;;;16.96;47.65
50125;BME280;36023;48.670;6.184;2023-04-02T01:37:49;98333.53;;;16.96;47.50
50125;BME280;36023;48.670;6.184;2023-04-02T01:45:33;98333.63;;;16.94;47.60
50125;BME280;36023;48.670;6.184;2023-04-02T01:48:04;98334.56;;;16.93;47.63
50125;BME280;36023;48.670;6.184;2023-04-02T01:50:34;98335.41;;;16.94;47.52
50125;BME280;36023;48.670;6.184;2023-04-02T01:53:05;98335.41;;;16.94;47.58
50125;BME280;36023;48.670;6.184;2023-04-02T01:55:46;98342.41;;;16.93;47.43
50125;BME280;36023;48.670;6.184;2023-04-02T01:58:18;98339.88;;;16.92;47.46
50125;BME280;36023;48.670;6.184;2023-04-02T02:01:05;98343.34;;;16.92;47.38
50125;BME280;36023;48.670;6.184;2023-04-02T02:03:33;98346.81;;;16.93;47.43
50125;BME280;36023;48.670;6.184;2023-04-02T02:06:02;98347.75;;;16.92;47.46
50125;BME280;36023;48.670;6.184;2023-04-02T02:08:40;98350.34;;;16.92;47.44
50125;BME280;36023;48.670;6.184;2023-04-02T02:11:17;98347.75;;;16.92;47.30
50125;BME280;36023;48.670;6.184;2023-04-02T02:13:54;98350.34;;;16.92;47.39
50125;BME280;36023;48.670;6.184;2023-04-02T02:16:20;98353.91;;;16.91;47.47
50125;BME280;36023;48.670;6.184;2023-04-02T02:18:50;98348.66;;;16.91;47.44
50125;BME280;36023;48.670;6.184;2023-04-02T02:21:41;98354.75;;;16.91;47.47
50125;BME280;36023;48.670;6.184;2023-04-02T02:24:23;98353.06;;;16.90;47.20
50125;BME280;36023;48.670;6.184;2023-04-02T02:29:42;98352.22;;;16.90;47.35
50125;BME280;36023;48.670;6.184;2023-04-02T02:32:09;98354.84;;;16.90;47.31
50125;BME280;36023;48.670;6.184;2023-04-02T02:34:42;98353.91;;;16.91;47.39
50125;BME280;36023;48.670;6.184;2023-04-02T02:37:32;98350.44;;;16.90;47.32
50125;BME280;36023;48.670;6.184;2023-04-02T02:40:02;98352.22;;;16.90;47.36
50125;BME280;36023;48.670;6.184;2023-04-02T02:42:37;98354.00;;;16.89;47.12
50125;BME280;36023;48.670;6.184;2023-04-02T02:45:05;98361.00;;;16.89;47.27
50125;BME280;36023;48.670;6.184;2023-04-02T02:47:36;98365.31;;;16.90;47.41
50125;BME280;36023;48.670;6.184;2023-04-02T02:50:10;98366.22;;;16.89;47.33
50125;BME280;36023;48.670;6.184;2023-04-02T02:52:38;98367.91;;;16.90;47.27
50125;BME280;36023;48.670;6.184;2023-04-02T02:55:16;98372.31;;;16.89;47.40
50125;BME280;36023;48.670;6.184;2023-04-02T02:58:14;98371.53;;;16.87;47.22
50125;BME280;36023;48.670;6.184;2023-04-02T03:00:53;98367.13;;;16.88;47.23
50125;BME280;36023;48.670;6.184;2023-04-02T03:03:23;98369.84;;;16.86;47.31
50125;BME280;36023;48.670;6.184;2023-04-02T03:06:05;98378.53;;;16.87;47.15
50125;BME280;36023;48.670;6.184;2023-04-02T03:09:05;98372.47;;;16.86;47.31
50125;BME280;36023;48.670;6.184;2023-04-02T03:11:49;98381.25;;;16.85;47.21
50125;BME280;36023;48.670;6.184;2023-04-02T03:14:27;98379.47;;;16.86;47.14
50125;BME280;36023;48.670;6.184;2023-04-02T03:17:11;98380.41;;;16.85;47.27
50125;BME280;36023;48.670;6.184;2023-04-02T03:22:16;98389.09;;;16.85;47.23
50125;BME280;36023;48.670;6.184;2023-04-02T03:24:54;98393.47;;;16.85;47.23
50125;BME280;36023;48.670;6.184;2023-04-02T03:27:33;98386.56;;;16.84;47.14
50125;BME280;36023;48.670;6.184;2023-04-02T03:30:24;98389.19;;;16.84;47.16
50125;BME280;36023;48.670;6.184;2023-04-02T03:32:54;98393.56;;;16.83;47.21
50125;BME280;36023;48.670;6.184;2023-04-02T03:35:40;98397.97;;;16.83;47.23
50125;BME280;36023;48.670;6.184;2023-04-02T03:38:15;98403.19;;;16.83;47.22
50125;BME280;36023;48.670;6.184;2023-04-02T03:43:35;98405.81;;;16.83;47.18
50125;BME280;36023;48.670;6.184;2023-04-02T03:46:24;98407.56;;;16.82;47.04
50125;BME280;36023;48.670;6.184;2023-04-02T03:49:42;98411.97;;;16.82;47.17
50125;BME280;36023;48.670;6.184;2023-04-02T03:51:54;98413.75;;;16.81;46.99
50125;BME280;36023;48.670;6.184;2023-04-02T03:54:22;98410.25;;;16.81;47.06
50125;BME280;36023;48.670;6.184;2023-04-02T03:56:48;98420.72;;;16.81;47.16
50125;BME280;36023;48.670;6.184;2023-04-02T03:59:43;98421.59;;;16.81;47.14
50125;BME280;36023;48.670;6.184;2023-04-02T04:04:52;98419.88;;;16.80;47.10
50125;BME280;36023;48.670;6.184;2023-04-02T04:07:28;98429.50;;;16.80;46.97
50125;BME280;36023;48.670;6.184;2023-04-02T04:09:56;98426.88;;;16.80;46.92
50125;BME280;36023;48.670;6.184;2023-04-02T04:12:29;98423.41;;;16.79;47.07
50125;BME280;36023;48.670;6.184;2023-04-02T04:15:16;98432.09;;;16.80;46.89
50125;BME280;36023;48.670;6.184;2023-04-02T04:17:52;98432.09;;;16.80;47.07
50125;BME280;36023;48.670;6.184;2023-04-02T04:20:31;98440.88;;;16.79;47.00
50125;BME280;36023;48.670;6.184;2023-04-02T04:23:10;98425.19;;;16.79;47.01
50125;BME280;36023;48.670;6.184;2023-04-02T04:25:41;98433.03;;;16.79;47.01
50125;BME280;36023;48.670;6.184;2023-04-02T04:28:25;98441.81;;;16.78;47.01
50125;BME280;36023;48.670;6.184;2023-04-02T04:31:07;98447.03;;;16.78;46.97
50125;BME280;36023;48.670;6.184;2023-04-02T04:33:42;98445.28;;;16.78;47.08
50125;BME280;36023;48.670;6.184;2023-04-02T04:36:23;98449.66;;;16.78;47.07
50125;BME280;36023;48.670;6.184;2023-04-02T04:38:59;98445.38;;;16.77;47.07
50125;BME280;36023;48.670;6.184;2023-04-02T04:41:34;98451.44;;;16.77;47.02
50125;BME280;36023;48.670;6.184;2023-04-02T04:46:44;98453.22;;;16.77;47.06
50125;BME280;36023;48.670;6.184;2023-04-02T04:51:50;98457.59;;;16.76;47.02
50125;BME280;36023;48.670;6.184;2023-04-02T04:54:18;98460.22;;;16.76;46.94
50125;BME280;36023;48.670;6.184;2023-04-02T04:56:56;98471.50;;;16.77;46.98
50125;BME280;36023;48.670;6.184;2023-04-02T04:59:38;98461.97;;;16.76;46.87
50125;BME280;36023;48.670;6.184;2023-04-02T05:02:17;98474.13;;;16.77;46.88
50125;BME280;36023;48.670;6.184;2023-04-02T05:04:49;98468.16;;;16.75;46.94
50125;BME280;36023;48.670;6.184;2023-04-02T05:07:22;98471.69;;;16.74;46.97
50125;BME280;36023;48.670;6.184;2023-04-02T05:09:56;98467.31;;;16.74;46.79
50125;BME280;36023;48.670;6.184;2023-04-02T05:12:53;98473.38;;;16.75;47.09
50125;BME280;36023;48.670;6.184;2023-04-02T05:15:34;98476.91;;;16.74;46.96
50125;BME280;36023;48.670;6.184;2023-04-02T05:21:05;98480.44;;;16.73;47.04
50125;BME280;36023;48.670;6.184;2023-04-02T05:31:42;98487.44;;;16.72;47.03
50125;BME280;36023;48.670;6.184;2023-04-02T05:34:12;98483.13;;;16.71;46.98
50125;BME280;36023;48.670;6.184;2023-04-02T05:36:38;98491.91;;;16.70;47.00
50125;BME280;36023;48.670;6.184;2023-04-02T05:39:08;98496.31;;;16.69;46.96
50125;BME280;36023;48.670;6.184;2023-04-02T05:41:45;98496.31;;;16.69;46.92
50125;BME280;36023;48.670;6.184;2023-04-02T05:44:28;98498.00;;;16.70;46.87
50125;BME280;36023;48.670;6.184;2023-04-02T05:46:56;98501.53;;;16.69;46.90
50125;BME280;36023;48.670;6.184;2023-04-02T05:49:30;98498.06;;;16.69;47.02
50125;BME280;36023;48.670;6.184;2023-04-02T05:52:01;98502.44;;;16.68;47.05
50125;BME280;36023;48.670;6.184;2023-04-02T05:54:33;98497.19;;;16.68;46.84
50125;BME280;36023;48.670;6.184;2023-04-02T05:57:04;98496.38;;;16.68;46.97
50125;BME280;36023;48.670;6.184;2023-04-02T05:59:44;98505.03;;;16.68;46.90
50125;BME280;36023;48.670;6.184;2023-04-02T06:02:22;98512.88;;;16.68;47.00
50125;BME280;36023;48.670;6.184;2023-04-02T06:04:58;98513.81;;;16.67;46.84
50125;BME280;36023;48.670;6.184;2023-04-02T06:07:35;98512.97;;;16.67;46.99
50125;BME280;36023;48.670;6.184;2023-04-02T06:10:21;98518.13;;;16.68;47.04
50125;BME280;36023;48.670;6.184;2023-04-02T06:12:53;98519.06;;;16.67;46.98
50125;BME280;36023;48.670;6.184;2023-04-02T06:15:21;98519.97;;;16.66;46.94
50125;BME280;36023;48.670;6.184;2023-04-02T06:18:04;98526.06;;;16.67;47.08
50125;BME280;36023;48.670;6.184;2023-04-02T06:20:32;98538.28;;;16.66;46.81
50125;BME280;36023;48.670;6.184;2023-04-02T06:23:01;98527.81;;;16.66;46.91
50125;BME280;36023;48.670;6.184;2023-04-02T06:25:44;98538.28;;;16.66;47.04
50125;BME280;36023;48.670;6.184;2023-04-02T06:28:25;98532.22;;;16.66;46.95
50125;BME280;36023;48.670;6.184;2023-04-02T06:30:57;98540.91;;;16.66;47.12
50125;BME280;36023;48.670;6.184;2023-04-02T06:33:27;98542.66;;;16.66;46.99
50125;BME280;36023;48.670;6.184;2023-04-02T06:35:53;98551.41;;;16.65;46.99
50125;BME280;36023;48.670;6.184;2023-04-02T06:38:28;98553.13;;;16.66;46.94
50125;BME280;36023;48.670;6.184;2023-04-02T06:40:57;98551.41;;;16.65;46.94
50125;BME280;36023;48.670;6.184;2023-04-02T06:43:59;98556.63;;;16.65;46.96
50125;BME280;36023;48.670;6.184;2023-04-02T06:46:55;98560.97;;;16.66;47.01
50125;BME280;36023;48.670;6.184;2023-04-02T06:49:33;98561.88;;;16.65;46.95
50125;BME280;36023;48.670;6.184;2023-04-02T06:52:07;98572.31;;;16.65;47.07
50125;BME280;36023;48.670;6.184;2023-04-02T06:54:38;98574.09;;;16.64;47.02
50125;BME280;36023;48.670;6.184;2023-04-02T06:57:09;98577.56;;;16.65;47.20
50125;BME280;36023;48.670;6.184;2023-04-02T06:59:39;98579.41;;;16.63;46.96
50125;BME280;36023;48.670;6.184;2023-04-02T07:04:40;98588.09;;;16.63;47.02
50125;BME280;36023;48.670;6.184;2023-04-02T07:07:07;98581.19;;;16.62;46.86
50125;BME280;36023;48.670;6.184;2023-04-02T07:09:36;98582.88;;;16.63;47.00
50125;BME280;36023;48.670;6.184;2023-04-02T07:12:12;98592.50;;;16.63;47.16
50125;BME280;36023;48.670;6.184;2023-04-02T07:14:38;98594.25;;;16.62;47.00
50125;BME280;36023;48.670;6.184;2023-04-02T07:17:04;98602.94;;;16.63;46.97
50125;BME280;36023;48.670;6.184;2023-04-02T07:19:29;98605.56;;;16.63;47.28
50125;BME280;36023;48.670;6.184;2023-04-02T07:21:57;98602.09;;;16.62;47.08
50125;BME280;36023;48.670;6.184;2023-04-02T07:24:28;98606.50;;;16.62;47.09
50125;BME280;36023;48.670;6.184;2023-04-02T07:26:54;98612.56;;;16.62;47.20
50125;BME280;36023;48.670;6.184;2023-04-02T07:29:20;98609.09;;;16.62;47.14
50125;BME280;36023;48.670;6.184;2023-04-02T07:31:46;98614.41;;;16.60;47.11
50125;BME280;36023;48.670;6.184;2023-04-02T07:34:11;98620.50;;;16.61;47.15
50125;BME280;36023;48.670;6.184;2023-04-02T07:36:37;98624.88;;;16.60;47.19
50125;BME280;36023;48.670;6.184;2023-04-02T07:39:03;98630.94;;;16.61;47.16
50125;BME280;36023;48.670;6.184;2023-04-02T07:41:29;98632.72;;;16.60;47.11
50125;BME280;36023;48.670;6.184;2023-04-02T07:43:54;98637.09;;;16.60;47.11
50125;BME280;36023;48.670;6.184;2023-04-02T07:46:20;98636.25;;;16.59;47.17
50125;BME280;36023;48.670;6.184;2023-04-02T07:48:46;98644.94;;;16.60;47.31
50125;BME280;36023;48.670;6.184;2023-04-02T07:51:23;98644.19;;;16.58;47.19
50125;BME280;36023;48.670;6.184;2023-04-02T07:53:49;98651.09;;;16.59;47.16
50125;BME280;36023;48.670;6.184;2023-04-02T07:56:21;98656.34;;;16.59;47.26
50125;BME280;36023;48.670;6.184;2023-04-02T07:58:48;98652.03;;;16.58;47.25
50125;BME280;36023;48.670;6.184;2023-04-02T08:01:25;98667.72;;;16.58;47.25
50125;BME280;36023;48.670;6.184;2023-04-02T08:03:52;98665.09;;;16.58;47.31
50125;BME280;36023;48.670;6.184;2023-04-02T08:06:19;98671.22;;;16.57;47.33
50125;BME280;36023;48.670;6.184;2023-04-02T08:08:47;98675.56;;;16.58;47.29
50125;BME280;36023;48.670;6.184;2023-04-02T08:11:14;98675.56;;;16.58;47.34
50125;BME280;36023;48.670;6.184;2023-04-02T08:13:40;98680.78;;;16.58;47.42
50125;BME280;36023;48.670;6.184;2023-04-02T08:16:06;98680.78;;;16.58;47.42
50125;BME280;36023;48.670;6.184;2023-04-02T08:18:32;98684.31;;;16.57;47.31
50125;BME280;36023;48.670;6.184;2023-04-02T08:20:58;98695.59;;;16.57;47.54
50125;BME280;36023;48.670;6.184;2023-04-02T08:23:25;98692.97;;;16.57;47.38
50125;BME280;36023;48.670;6.184;2023-04-02T08:25:51;98691.25;;;16.58;47.53
50125;BME280;36023;48.670;6.184;2023-04-02T08:28:18;98696.47;;;16.58;47.49
50125;BME280;36023;48.670;6.184;2023-04-02T08:30:46;98707.81;;;16.57;47.53
50125;BME280;36023;48.670;6.184;2023-04-02T08:33:14;98699.97;;;16.57;47.54
50125;BME280;36023;48.670;6.184;2023-04-02T08:35:40;98710.44;;;16.57;47.53
50125;BME280;36023;48.670;6.184;2023-04-02T08:38:06;98707.81;;;16.57;47.40
50125;BME280;36023;48.670;6.184;2023-04-02T08:40:37;98715.66;;;16.57;47.52
50125;BME280;36023;48.670;6.184;2023-04-02T08:46:04;98719.22;;;16.56;47.62
50125;BME280;36023;48.670;6.184;2023-04-02T08:48:35;98723.59;;;16.55;47.77
50125;BME280;36023;48.670;6.184;2023-04-02T08:51:04;98726.22;;;16.55;47.62
50125;BME280;36023;48.670;6.184;2023-04-02T08:53:34;98730.59;;;16.55;47.70
50125;BME280;36023;48.670;6.184;2023-04-02T08:56:22;98736.66;;;16.55;47.72
50125;BME280;36023;48.670;6.184;2023-04-02T08:58:54;98737.59;;;16.54;47.83
50125;BME280;36023;48.670;6.184;2023-04-02T09:01:29;98742.75;;;16.56;47.64
50125;BME280;36023;48.670;6.184;2023-04-02T09:03:59;98738.44;;;16.55;47.88
50125;BME280;36023;48.670;6.184;2023-04-02T09:06:28;98750.66;;;16.54;47.76
50125;BME280;36023;48.670;6.184;2023-04-02T09:08:56;98761.97;;;16.55;47.77
50125;BME280;36023;48.670;6.184;2023-04-02T09:11:30;98763.72;;;16.54;47.89
50125;BME280;36023;48.670;6.184;2023-04-02T09:13:59;98769.81;;;16.55;47.77
50125;BME280;36023;48.670;6.184;2023-04-02T09:16:52;98773.34;;;16.54;47.92
50125;BME280;36023;48.670;6.184;2023-04-02T09:19:29;98772.50;;;16.53;47.85
50125;BME280;36023;48.670;6.184;2023-04-02T09:22:22;98776.81;;;16.54;47.79
50125;BME280;36023;48.670;6.184;2023-04-02T09:24:59;98775.13;;;16.53;47.90
50125;BME280;36023;48.670;6.184;2023-04-02T09:27:28;98782.13;;;16.53;47.59
50125;BME280;36023;48.670;6.184;2023-04-02T09:30:06;98787.34;;;16.53;47.98
50125;BME280;36023;48.670;6.184;2023-04-02T09:32:51;98790.88;;;16.52;47.89
50125;BME280;36023;48.670;6.184;2023-04-02T09:35:22;98789.13;;;16.52;48.01
50125;BME280;36023;48.670;6.184;2023-04-02T09:40:45;98801.34;;;16.52;48.08
50125;BME280;36023;48.670;6.184;2023-04-02T09:43:23;98805.72;;;16.51;47.89
50125;BME280;36023;48.670;6.184;2023-04-02T09:48:36;98810.94;;;16.51;48.17
50125;BME280;36023;48.670;6.184;2023-04-02T09:51:18;98816.22;;;16.50;48.09
50125;BME280;36023;48.670;6.184;2023-04-02T09:53:50;98824.06;;;16.50;47.99
50125;BME280;36023;48.670;6.184;2023-04-02T09:56:35;98828.44;;;16.49;48.05
50125;BME280;36023;48.670;6.184;2023-04-02T09:59:02;98828.44;;;16.49;48.07
50125;BME280;36023;48.670;6.184;2023-04-02T10:01:32;98836.28;;;16.49;47.89
50125;BME280;36023;48.670;6.184;2023-04-02T10:03:58;98838.06;;;16.49;48.18
50125;BME280;36023;48.670;6.184;2023-04-02T10:06:27;98829.38;;;16.48;48.16
50125;BME280;36023;48.670;6.184;2023-04-02T10:08:53;98841.53;;;16.49;48.09
50125;BME280;36023;48.670;6.184;2023-04-02T10:11:39;98847.59;;;16.50;48.28
50125;BME280;36023;48.670;6.184;2023-04-02T10:14:17;98852.78;;;16.51;48.15
50125;BME280;36023;48.670;6.184;2023-04-02T10:16:51;98856.94;;;16.55;48.20
50125;BME280;36023;48.670;6.184;2023-04-02T10:19:35;98859.34;;;16.60;48.38
50125;BME280;36023;48.670;6.184;2023-04-02T10:22:08;98861.72;;;16.64;48.20
50125;BME280;36023;48.670;6.184;2023-04-02T10:24:36;98865.75;;;16.71;48.31
50125;BME280;36023;48.670;6.184;2023-04-02T10:32:56;98872.84;;;16.87;48.04
50125;BME280;36023;48.670;6.184;2023-04-02T10:38:11;98874.97;;;16.97;48.39
50125;BME280;36023;48.670;6.184;2023-04-02T10:40:42;98882.44;;;17.05;48.94
50125;BME280;36023;48.670;6.184;2023-04-02T10:46:22;98888.59;;;17.21;49.69
50125;BME280;36023;48.670;6.184;2023-04-02T10:56:49;98905.31;;;17.36;50.74
50125;BME280;36023;48.670;6.184;2023-04-02T10:59:26;98905.97;;;17.40;50.91
50125;BME280;36023;48.670;6.184;2023-04-02T11:01:58;98906.75;;;17.42;50.92
50125;BME280;36023;48.670;6.184;2023-04-02T11:04:30;98918.00;;;17.44;51.08
50125;BME280;36023;48.670;6.184;2023-04-02T11:07:06;98920.53;;;17.45;51.14
50125;BME280;36023;48.670;6.184;2023-04-02T11:09:38;98920.53;;;17.45;51.27
50125;BME280;36023;48.670;6.184;2023-04-02T11:12:23;98924.84;;;17.46;51.21
50125;BME280;36023;48.670;6.184;2023-04-02T11:14:53;98918.59;;;17.49;51.42
50125;BME280;36023;48.670;6.184;2023-04-02T11:17:19;98928.16;;;17.50;51.33
50125;BME280;36023;48.670;6.184;2023-04-02T11:19:45;98928.94;;;17.52;51.39
50125;BME280;36023;48.670;6.184;2023-04-02T11:22:17;98933.16;;;17.54;51.68
50125;BME280;36023;48.670;6.184;2023-04-02T11:24:49;98929.63;;;17.55;51.63
50125;BME280;36023;48.670;6.184;2023-04-02T11:42:44;98955.13;;;17.69;52.40
50125;BME280;36023;48.670;6.184;2023-04-02T11:53:01;98956.88;;;17.69;52.44
50125;BME280;36023;48.670;6.184;2023-04-02T11:55:35;98965.69;;;17.68;52.40
50125;BME280;36023;48.670;6.184;2023-04-02T12:00:50;98978.78;;;17.68;52.33
50125;BME280;36023;48.670;6.184;2023-04-02T12:07:07;98973.66;;;17.65;52.46
50125;BME280;36023;48.670;6.184;2023-04-02T12:11:53;98984.22;;;17.63;52.51
50125;BME280;36023;48.670;6.184;2023-04-02T12:14:47;98980.84;;;17.61;52.29
50125;BME280;36023;48.670;6.184;2023-04-02T12:17:19;98980.84;;;17.61;52.52
50125;BME280;36023;48.670;6.184;2023-04-02T12:19:48;98991.31;;;17.61;52.41
50125;BME280;36023;48.670;6.184;2023-04-02T12:22:22;98989.63;;;17.60;52.45
50125;BME280;36023;48.670;6.184;2023-04-02T12:24:49;98993.09;;;17.61;52.46
50125;BME280;36023;48.670;6.184;2023-04-02T12:27:19;98996.69;;;17.58;52.48
50125;BME280;36023;48.670;6.184;2023-04-02T12:29:50;98998.53;;;17.56;52.40
50125;BME280;36023;48.670;6.184;2023-04-02T12:32:28;99004.63;;;17.57;52.46
50125;BME280;36023;48.670;6.184;2023-04-02T12:34:56;98997.88;;;17.52;52.41
50125;BME280;36023;48.670;6.184;2023-04-02T12:37:25;99003.22;;;17.49;52.50
50125;BME280;36023;48.670;6.184;2023-04-02T12:39:58;99008.56;;;17.48;52.38
50125;BME280;36023;48.670;6.184;2023-04-02T12:42:30;99017.41;;;17.45;52.46
50125;BME280;36023;48.670;6.184;2023-04-02T12:44:56;99017.53;;;17.42;52.35
50125;BME280;36023;48.670;6.184;2023-04-02T12:47:23;99010.69;;;17.40;52.48
50125;BME280;36023;48.670;6.184;2023-04-02T12:49:49;99019.31;;;17.42;52.79
50125;BME280;36023;48.670;6.184;2023-04-02T12:52:18;99025.34;;;17.44;52.61
50125;BME280;36023;48.670;6.184;2023-04-02T12:54:52;99017.63;;;17.41;52.65
50125;BME280;36023;48.670;6.184;2023-04-02T13:02:41;99029.09;;;17.38;52.67
50125;BME280;36023;48.670;6.184;2023-04-02T13:05:09;99030.03;;;17.37;52.76
50125;BME280;36023;48.670;6.184;2023-04-02T13:07:36;99028.34;;;17.36;52.68
50125;BME280;36023;48.670;6.184;2023-04-02T13:10:05;99034.63;;;17.32;52.59
50125;BME280;36023;48.670;6.184;2023-04-02T13:12:46;99036.41;;;17.32;52.75
50125;BME280;36023;48.670;6.184;2023-04-02T13:15:39;99033.78;;;17.32;52.84
50125;BME280;36023;48.670;6.184;2023-04-02T13:18:15;99032.94;;;17.31;52.92
50125;BME280;36023;48.670;6.184;2023-04-02T13:20:56;99039.03;;;17.32;52.78
50125;BME280;36023;48.670;6.184;2023-04-02T13:26:00;99035.56;;;17.31;52.92
50125;BME280;36023;48.670;6.184;2023-04-02T13:28:27;99043.41;;;17.31;53.01
50125;BME280;36023;48.670;6.184;2023-04-02T13:30:53;99036.41;;;17.32;52.98
50125;BME280;36023;48.670;6.184;2023-04-02T13:33:19;99044.19;;;17.33;53.01
50125;BME280;36023;48.670;6.184;2023-04-02T13:35:45;99039.88;;;17.32;53.00
50125;BME280;36023;48.670;6.184;2023-04-02T13:38:11;99045.09;;;17.32;52.81
50125;BME280;36023;48.670;6.184;2023-04-02T13:40:37;99039.72;;;17.35;53.08
50125;BME280;36023;48.670;6.184;2023-04-02T13:47:20;99055.13;;;17.41;53.03
50125;BME280;36023;48.670;6.184;2023-04-02T13:49:46;99050.72;;;17.42;53.14
50125;BME280;36023;48.670;6.184;2023-04-02T13:52:13;99050.72;;;17.42;52.94
50125;BME280;36023;48.670;6.184;2023-04-02T13:54:47;99051.53;;;17.44;53.04
50125;BME280;36023;48.670;6.184;2023-04-02T13:57:14;99050.59;;;17.45;53.14
50125;BME280;36023;48.670;6.184;2023-04-02T13:59:40;99053.31;;;17.43;53.16
50125;BME280;36023;48.670;6.184;2023-04-02T14:02:17;99058.53;;;17.43;53.08
50125;BME280;36023;48.670;6.184;2023-04-02T14:04:47;99067.25;;;17.44;53.15
50125;BME280;36023;48.670;6.184;2023-04-02T14:07:19;99071.63;;;17.43;53.16
50125;BME280;36023;48.670;6.184;2023-04-02T14:10:00;99071.63;;;17.43;53.25
50125;BME280;36023;48.670;6.184;2023-04-02T14:12:44;99078.59;;;17.43;53.39
50125;BME280;36023;48.670;6.184;2023-04-02T14:18:11;99087.38;;;17.42;53.36
50125;BME280;36023;48.670;6.184;2023-04-02T14:31:02;99096.75;;;17.29;53.04
50125;BME280;36023;48.670;6.184;2023-04-02T14:33:59;99109.06;;;17.26;53.08
50125;BME280;36023;48.670;6.184;2023-04-02T14:36:58;99103.06;;;17.24;53.01
50125;BME280;36023;48.670;6.184;2023-04-02T14:39:44;99109.28;;;17.22;52.84
50125;BME280;36023;48.670;6.184;2023-04-02T14:42:15;99109.38;;;17.20;52.86
50125;BME280;36023;48.670;6.184;2023-04-02T14:44:48;99112.81;;;17.21;52.89
50125;BME280;36023;48.670;6.184;2023-04-02T14:47:24;99114.53;;;17.22;52.93
50125;BME280;36023;48.670;6.184;2023-04-02T14:49:56;99113.53;;;17.24;52.85
50125;BME280;36023;48.670;6.184;2023-04-02T14:52:27;99112.59;;;17.25;52.75
50125;BME280;36023;48.670;6.184;2023-04-02T14:55:08;99116.91;;;17.26;52.77
50125;BME280;36023;48.670;6.184;2023-04-02T14:57:42;99118.56;;;17.29;52.64
50125;BME280;36023;48.670;6.184;2023-04-02T15:00:39;99122.78;;;17.32;52.51
50125;BME280;36023;48.670;6.184;2023-04-02T15:03:22;99116.53;;;17.34;52.56
50125;BME280;36023;48.670;6.184;2023-04-02T15:05:56;99126.91;;;17.37;52.34
50125;BME280;36023;48.670;6.184;2023-04-02T15:08:33;99124.13;;;17.40;52.43
50125;BME280;36023;48.670;6.184;2023-04-02T15:11:11;99132.69;;;17.44;52.21
50125;BME280;36023;48.670;6.184;2023-04-02T15:13:52;99130.84;;;17.46;52.20
50125;BME280;36023;48.670;6.184;2023-04-02T15:16:23;99136.84;;;17.48;52.20
50125;BME280;36023;48.670;6.184;2023-04-02T15:18:56;99133.22;;;17.50;51.95
50125;BME280;36023;48.670;6.184;2023-04-02T15:27:34;99137.41;;;17.54;51.71
50125;BME280;36023;48.670;6.184;2023-04-02T15:30:12;99144.25;;;17.57;51.70
50125;BME280;36023;48.670;6.184;2023-04-02T15:32:40;99145.13;;;17.58;51.67
50125;BME280;36023;48.670;6.184;2023-04-02T15:38:06;99149.41;;;17.59;51.51
50125;BME280;36023;48.670;6.184;2023-04-02T15:40:39;99148.56;;;17.58;51.48
50125;BME280;36023;48.670;6.184;2023-04-02T15:43:27;99149.50;;;17.57;51.62
50125;BME280;36023;48.670;6.184;2023-04-02T16:05:24;99174.28;;;17.50;51.29
50125;BME280;36023;48.670;6.184;2023-04-02T16:08:18;99170.03;;;17.47;51.44
50125;BME280;36023;48.670;6.184;2023-04-02T16:10:49;99175.34;;;17.46;51.49
50125;BME280;36023;48.670;6.184;2023-04-02T16:13:34;99184.13;;;17.45;51.23
50125;BME280;36023;48.670;6.184;2023-04-02T16:16:35;99180.66;;;17.44;51.43
50125;BME280;36023;48.670;6.184;2023-04-02T16:21:57;99197.44;;;17.40;51.35
50125;BME280;36023;48.670;6.184;2023-04-02T16:24:26;99201.88;;;17.38;51.34
50125;BME280;36023;48.670;6.184;2023-04-02T16:32:01;99221.34;;;17.33;51.27
50125;BME280;36023;48.670;6.184;2023-04-02T16:34:48;99222.41;;;17.29;51.42